createdAt,value
2018-11-04T00:04:45.597Z,20.50
2018-11-04T00:07:16.533Z,22.30
2018-11-04T00:09:50.695Z,23.03
2018-11-04T00:12:29.223Z,21.80
2018-11-04T00:15:08.722Z,23.60
2018-11-04T00:17:43.841Z,23.13
2018-11-04T00:20:15.998Z,23.23
2018-11-04T00:22:47.623Z,24.00
2018-11-04T00:25:17.573Z,25.00
2018-11-04T00:27:47.872Z,23.37
2018-11-04T00:30:20.593Z,23.77
2018-11-04T00:32:59.991Z,23.27
2018-11-04T00:35:30.893Z,23.70
2018-11-04T00:38:00.135Z,23.97
2018-11-04T00:40:29.525Z,23.40
2018-11-04T00:43:02.915Z,23.97
2018-11-04T00:45:32.528Z,24.30
2018-11-04T00:48:04.483Z,24.47
2018-11-04T00:50:34.269Z,24.70
2018-11-04T00:53:06.673Z,24.73
2018-11-04T00:55:39.423Z,24.30
2018-11-04T00:58:11.867Z,25.80
2018-11-04T01:09:52.378Z,26.63
2018-11-04T01:12:23.258Z,25.90
2018-11-04T01:14:53.012Z,25.00
2018-11-04T01:17:23.687Z,25.47
2018-11-04T01:19:53.977Z,27.97
2018-11-04T01:22:26.256Z,26.13
2018-11-04T01:24:58.060Z,26.90
2018-11-04T01:27:27.598Z,25.57
2018-11-04T01:29:57.040Z,26.40
2018-11-04T01:35:47.701Z,25.67
2018-11-04T01:38:30.701Z,25.63
2018-11-04T01:41:06.010Z,24.73
2018-11-04T01:46:23.898Z,25.83
2018-11-04T01:51:52.382Z,25.80
2018-11-04T01:54:30.797Z,25.97
2018-11-04T01:57:07.319Z,26.40
2018-11-04T01:59:40.933Z,26.57
2018-11-04T02:02:16.852Z,26.73
2018-11-04T02:07:46.707Z,26.90
2018-11-04T02:10:17.784Z,27.00
2018-11-04T02:12:51.421Z,25.17
2018-11-04T02:15:22.818Z,27.33
2018-11-04T02:17:54.744Z,27.33
2018-11-04T02:20:25.991Z,27.03
2018-11-04T02:22:56.358Z,26.83
2018-11-04T02:25:29.349Z,27.00
2018-11-04T02:28:01.848Z,26.80
2018-11-04T02:30:47.159Z,27.70
2018-11-04T02:33:16.733Z,26.60
2018-11-04T02:35:46.232Z,27.07
2018-11-04T02:38:16.589Z,27.87
2018-11-04T02:40:48.122Z,28.43
2018-11-04T02:43:20.273Z,29.10
2018-11-04T02:45:58.360Z,29.23
2018-11-04T02:48:42.480Z,28.57
2018-11-04T02:51:14.781Z,27.93
2018-11-04T02:53:50.757Z,27.03
2018-11-04T02:56:21.515Z,28.30
2018-11-04T02:58:55.685Z,27.20
2018-11-04T03:01:29.663Z,28.00
2018-11-04T03:04:00.982Z,29.20
2018-11-04T03:06:33.884Z,28.00
2018-11-04T03:11:51.716Z,28.60
2018-11-04T03:14:24.873Z,27.70
2018-11-04T03:16:59.699Z,29.10
2018-11-04T03:19:30.365Z,28.33
2018-11-04T03:22:03.221Z,29.33
2018-11-04T03:24:32.973Z,30.27
2018-11-04T03:27:02.665Z,28.63
2018-11-04T03:29:33.134Z,29.57
2018-11-04T03:32:04.736Z,30.27
2018-11-04T03:34:36.524Z,30.07
2018-11-04T03:37:06.126Z,27.87
2018-11-04T03:39:38.578Z,29.27
2018-11-04T03:42:12.160Z,30.17
2018-11-04T03:44:43.107Z,29.60
2018-11-04T03:47:17.884Z,29.67
2018-11-04T03:49:47.644Z,30.13
2018-11-04T03:52:19.909Z,29.17
2018-11-04T03:54:51.628Z,31.17
2018-11-04T03:57:24.060Z,30.93
2018-11-04T03:59:55.622Z,31.47
2018-11-04T04:02:30.947Z,31.50
2018-11-04T04:05:07.219Z,30.57
2018-11-04T04:07:39.186Z,30.33
2018-11-04T04:10:10.367Z,31.00
2018-11-04T04:12:42.470Z,30.87
2018-11-04T04:15:12.080Z,30.67
2018-11-04T04:17:41.451Z,32.17
2018-11-04T04:20:10.624Z,31.70
2018-11-04T04:22:41.425Z,30.30
2018-11-04T04:25:10.701Z,31.60
2018-11-04T04:27:45.229Z,31.90
2018-11-04T04:30:20.507Z,32.10
2018-11-04T04:32:56.543Z,33.53
2018-11-04T04:35:30.635Z,33.13
2018-11-04T04:38:01.634Z,32.83
2018-11-04T04:40:32.216Z,33.83
2018-11-04T04:43:01.821Z,32.20
2018-11-04T04:45:36.043Z,33.00
2018-11-04T04:48:08.605Z,32.60
2018-11-04T04:50:46.616Z,32.53
2018-11-04T04:53:19.666Z,32.90
2018-11-04T04:55:50.808Z,33.57
2018-11-04T04:58:22.076Z,34.07
2018-11-04T05:00:59.196Z,34.10
2018-11-04T05:03:28.490Z,34.40
2018-11-04T05:06:00.804Z,33.80
2018-11-04T05:08:30.186Z,34.67
2018-11-04T05:11:05.264Z,34.00
2018-11-04T05:13:35.904Z,33.63
2018-11-04T05:16:06.424Z,34.70
2018-11-04T05:18:38.968Z,35.10
2018-11-04T05:21:08.167Z,34.90
2018-11-04T05:23:37.668Z,35.00
2018-11-04T05:26:15.249Z,36.40
2018-11-04T05:28:44.955Z,34.80
2018-11-04T05:31:15.479Z,34.57
2018-11-04T05:33:45.273Z,35.67
2018-11-04T05:36:17.980Z,36.33
2018-11-04T05:38:52.621Z,34.83
2018-11-04T05:41:21.815Z,34.80
2018-11-04T05:43:51.285Z,36.33
2018-11-04T05:46:21.809Z,37.37
2018-11-04T05:48:50.963Z,35.80
2018-11-04T05:51:24.578Z,36.57
2018-11-04T05:53:53.952Z,35.60
2018-11-04T05:56:23.899Z,37.57
2018-11-04T05:58:52.992Z,37.13
2018-11-04T06:01:22.268Z,35.37
2018-11-04T06:03:51.628Z,37.37
2018-11-04T06:06:21.170Z,36.73
2018-11-04T06:22:16.501Z,36.70
2018-11-04T06:24:47.417Z,37.97
2018-11-04T06:27:16.926Z,39.53
2018-11-04T06:29:51.539Z,37.63
2018-11-04T06:32:21.114Z,37.97
2018-11-04T06:34:50.219Z,37.40
2018-11-04T06:37:19.311Z,38.53
2018-11-04T06:39:48.487Z,37.93
2018-11-04T06:42:17.867Z,37.40
2018-11-04T06:44:48.103Z,37.23
2018-11-04T06:47:17.332Z,38.13
2018-11-04T06:49:46.443Z,39.23
2018-11-04T06:52:15.956Z,37.40
2018-11-04T06:54:47.503Z,39.37
2018-11-04T06:57:16.850Z,38.23
2018-11-04T06:59:47.597Z,39.33
2018-11-04T07:04:56.169Z,38.40
2018-11-04T07:07:25.161Z,38.00
2018-11-04T07:09:54.399Z,40.27
2018-11-04T07:12:23.752Z,39.63
2018-11-04T07:14:53.721Z,41.17
2018-11-04T07:17:23.883Z,40.10
2018-11-04T07:19:53.812Z,38.13
2018-11-04T07:22:25.857Z,40.20
2018-11-04T07:24:56.692Z,38.67
2018-11-04T07:27:26.747Z,40.30
2018-11-04T07:29:58.333Z,39.97
2018-11-04T07:32:27.942Z,39.90
2018-11-04T07:34:57.367Z,40.57
2018-11-04T07:37:27.823Z,37.97
2018-11-04T07:39:56.937Z,39.73
2018-11-04T07:42:26.177Z,38.70
2018-11-04T07:45:02.970Z,40.37
2018-11-04T07:47:32.074Z,41.03
2018-11-04T07:50:02.593Z,40.23
2018-11-04T07:52:31.629Z,38.63
2018-11-04T07:55:00.980Z,39.43
2018-11-04T07:57:30.418Z,39.50
2018-11-04T08:00:00.318Z,40.17
2018-11-04T08:02:30.705Z,39.90
2018-11-04T08:05:01.589Z,41.13
2018-11-04T08:07:31.584Z,41.93
2018-11-04T08:10:00.885Z,41.83
2018-11-04T08:12:30.695Z,41.63
2018-11-04T08:15:00.907Z,41.37
2018-11-04T08:17:33.074Z,43.07
2018-11-04T08:20:03.829Z,41.93
2018-11-04T08:22:34.485Z,43.67
2018-11-04T08:25:03.816Z,43.10
2018-11-04T08:27:34.772Z,43.10
2018-11-04T08:30:04.370Z,44.10
2018-11-04T08:32:34.908Z,44.33
2018-11-04T08:35:06.597Z,45.23
2018-11-04T08:37:39.203Z,43.40
2018-11-04T08:40:10.158Z,43.57
2018-11-04T08:42:39.816Z,45.43
2018-11-04T08:45:08.992Z,45.27
2018-11-04T08:47:38.629Z,44.73
2018-11-04T08:50:09.236Z,45.70
2018-11-04T08:52:38.699Z,44.40
2018-11-04T08:55:08.462Z,45.23
2018-11-04T08:57:38.748Z,44.97
2018-11-04T09:00:10.793Z,45.40
2018-11-04T09:02:40.302Z,45.90
2018-11-04T09:05:10.456Z,45.67
2018-11-04T09:07:40.684Z,44.73
2018-11-04T09:10:13.804Z,47.10
2018-11-04T09:12:43.610Z,46.50
2018-11-04T09:15:13.056Z,45.30
2018-11-04T09:17:43.728Z,44.30
2018-11-04T09:20:16.618Z,42.30
2018-11-04T09:22:45.756Z,43.63
2018-11-04T09:25:15.161Z,43.10
2018-11-04T09:27:44.460Z,43.67
2018-11-04T09:30:19.516Z,44.07
2018-11-04T09:32:49.396Z,44.27
2018-11-04T09:35:18.835Z,43.63
2018-11-04T09:37:48.458Z,44.47
2018-11-04T09:40:18.668Z,45.63
2018-11-04T09:42:48.301Z,46.43
2018-11-04T09:45:22.287Z,46.40
2018-11-04T09:47:52.450Z,44.43
2018-11-04T09:50:22.100Z,46.80
2018-11-04T09:52:51.779Z,47.30
2018-11-04T09:55:21.104Z,46.43
2018-11-04T09:57:58.672Z,45.50
2018-11-04T10:00:28.101Z,45.23
2018-11-04T10:03:00.138Z,45.43
2018-11-04T10:05:31.965Z,45.43
2018-11-04T10:08:03.599Z,47.10
2018-11-04T10:10:32.904Z,44.40
2018-11-04T10:13:03.901Z,45.07
2018-11-04T10:15:34.400Z,44.90
2018-11-04T10:18:04.344Z,45.73
2018-11-04T10:20:33.965Z,44.83
2018-11-04T10:23:02.818Z,44.17
2018-11-04T10:25:32.490Z,44.77
2018-11-04T10:28:03.279Z,43.50
2018-11-04T10:30:33.459Z,43.90
2018-11-04T10:33:04.983Z,43.83
2018-11-04T10:35:34.084Z,46.87
2018-11-04T10:38:04.536Z,44.93
2018-11-04T10:40:34.295Z,43.70
2018-11-04T10:43:09.997Z,46.30
2018-11-04T10:45:45.337Z,44.93
2018-11-04T10:48:26.899Z,45.33
2018-11-04T10:53:43.082Z,46.53
2018-11-04T10:56:14.195Z,47.53
2018-11-04T10:58:45.228Z,43.80
2018-11-04T11:01:15.236Z,44.50
2018-11-04T11:03:47.449Z,44.40
2018-11-04T11:06:20.730Z,47.73
2018-11-04T11:08:52.396Z,44.40
2018-11-04T11:11:22.140Z,46.10
2018-11-04T11:13:51.428Z,45.20
2018-11-04T11:16:21.389Z,45.30
2018-11-04T11:18:51.012Z,45.37
2018-11-04T11:21:20.211Z,46.17
2018-11-04T11:23:50.041Z,47.60
2018-11-04T11:26:19.587Z,47.20
2018-11-04T11:28:52.080Z,49.00
2018-11-04T11:31:29.253Z,44.00
2018-11-04T11:34:00.644Z,46.70
2018-11-04T11:36:30.719Z,47.47
2018-11-04T11:38:59.807Z,47.17
2018-11-04T11:41:30.298Z,47.23
2018-11-04T11:44:01.873Z,47.03
2018-11-04T11:46:31.212Z,44.57
2018-11-04T11:49:03.812Z,45.00
2018-11-04T11:51:38.933Z,45.83
2018-11-04T11:54:09.473Z,46.90
2018-11-04T11:56:39.123Z,48.00
2018-11-04T11:59:09.457Z,46.10
2018-11-04T12:01:45.814Z,48.63
2018-11-04T12:04:16.427Z,47.00
2018-11-04T12:06:46.113Z,47.20
2018-11-04T12:09:18.497Z,49.80
2018-11-04T12:11:48.437Z,48.23
2018-11-04T12:14:17.581Z,49.27
2018-11-04T12:16:46.872Z,47.97
2018-11-04T12:19:17.555Z,47.40
2018-11-04T12:21:50.132Z,47.97
2018-11-04T12:24:24.245Z,50.10
2018-11-04T12:27:00.357Z,48.57
2018-11-04T12:29:34.198Z,48.97
2018-11-04T12:32:12.211Z,49.60
2018-11-04T12:34:45.108Z,49.97
2018-11-04T12:37:24.945Z,50.30
2018-11-04T12:39:58.543Z,50.13
2018-11-04T12:46:07.680Z,47.93
2018-11-04T12:48:37.837Z,48.30
2018-11-04T12:51:08.988Z,48.80
2018-11-04T12:53:39.981Z,49.83
2018-11-04T12:56:09.483Z,51.23
2018-11-04T12:58:38.672Z,48.37
2018-11-04T13:04:29.607Z,48.67
2018-11-04T13:16:46.897Z,51.10
2018-11-04T13:19:24.899Z,48.20
2018-11-04T13:22:11.760Z,49.77
2018-11-04T13:25:04.884Z,51.00
2018-11-04T13:29:23.699Z,49.03
2018-11-04T13:32:14.370Z,50.10
2018-11-04T13:35:04.431Z,48.57
2018-11-04T13:37:35.272Z,48.00
2018-11-04T13:40:08.609Z,49.60
2018-11-04T13:42:40.444Z,50.10
2018-11-04T13:45:12.922Z,49.23
2018-11-04T13:47:45.415Z,51.33
2018-11-04T13:50:17.180Z,49.73
2018-11-04T13:52:49.069Z,50.93
2018-11-04T13:55:19.271Z,49.00
2018-11-04T13:57:49.375Z,48.90
2018-11-04T14:00:19.103Z,48.47
2018-11-04T14:02:49.774Z,49.67
2018-11-04T14:05:21.606Z,49.23
2018-11-04T14:07:50.794Z,50.60
2018-11-04T14:10:22.286Z,50.60
2018-11-04T14:12:52.351Z,50.13
2018-11-04T14:15:22.513Z,50.63
2018-11-04T14:17:52.120Z,50.47
2018-11-04T14:20:21.298Z,50.77
2018-11-04T14:22:50.897Z,51.40
2018-11-04T14:25:20.386Z,50.93
2018-11-04T14:27:50.044Z,49.80
2018-11-04T14:30:20.693Z,52.53
2018-11-04T14:32:52.548Z,52.70
2018-11-04T14:35:22.093Z,51.97
2018-11-04T14:37:54.147Z,51.63
2018-11-04T14:40:25.688Z,49.47
2018-11-04T14:42:55.523Z,50.63
2018-11-04T14:45:26.675Z,52.43
2018-11-04T14:49:04.267Z,51.77
2018-11-04T14:51:33.506Z,52.30
2018-11-04T14:54:03.774Z,51.70
2018-11-04T14:56:33.668Z,51.27
2018-11-04T14:59:05.005Z,52.40
2018-11-04T15:01:36.461Z,51.37
2018-11-04T15:04:34.456Z,53.07
2018-11-04T15:07:08.064Z,52.07
2018-11-04T15:09:38.604Z,51.33
2018-11-04T15:12:10.692Z,53.97
2018-11-04T15:14:40.146Z,52.80
2018-11-04T15:17:10.809Z,55.07
2018-11-04T15:19:41.576Z,54.03
2018-11-04T15:22:11.008Z,54.73
2018-11-04T15:24:42.971Z,56.57
2018-11-04T15:27:15.363Z,54.33
2018-11-04T15:29:45.628Z,57.00
2018-11-04T15:32:16.757Z,53.63
2018-11-04T15:34:46.255Z,53.43
2018-11-04T15:37:19.952Z,51.90
2018-11-04T15:40:05.943Z,51.47
2018-11-04T15:42:37.057Z,52.30
2018-11-04T15:45:17.932Z,53.37
2018-11-04T15:47:50.539Z,54.20
2018-11-04T15:50:21.840Z,52.50
2018-11-04T15:52:56.115Z,53.13
2018-11-04T15:55:33.143Z,52.43
2018-11-04T15:58:16.826Z,53.70
2018-11-04T16:01:11.229Z,50.27
2018-11-04T16:03:54.730Z,52.47
2018-11-04T16:09:25.662Z,54.90
2018-11-04T16:18:58.490Z,55.50
2018-11-04T16:21:35.714Z,55.57
2018-11-04T16:24:12.354Z,55.67
2018-11-04T16:26:46.213Z,58.20
2018-11-04T16:29:32.247Z,57.03
2018-11-04T16:32:08.403Z,56.63
2018-11-04T16:34:55.431Z,57.07
2018-11-04T16:41:51.344Z,55.53
2018-11-04T16:44:21.886Z,56.47
2018-11-04T16:46:52.279Z,57.40
2018-11-04T16:49:22.692Z,57.57
2018-11-04T16:51:53.786Z,61.13
2018-11-04T16:54:23.215Z,59.33
2018-11-04T16:56:54.759Z,59.03
2018-11-04T16:59:25.141Z,58.17
2018-11-04T17:01:55.194Z,57.63
2018-11-04T17:04:26.274Z,60.00
2018-11-04T17:06:55.994Z,58.37
2018-11-04T17:09:26.666Z,58.50
2018-11-04T17:11:56.546Z,59.00
2018-11-04T17:14:31.879Z,57.23
2018-11-04T17:17:03.379Z,56.43
2018-11-04T17:19:36.586Z,57.67
2018-11-04T17:22:08.990Z,57.00
2018-11-04T17:24:38.657Z,57.57
2018-11-04T17:27:09.396Z,56.40
2018-11-04T17:29:41.455Z,57.30
2018-11-04T17:32:11.946Z,59.00
2018-11-04T17:34:43.811Z,55.00
2018-11-04T17:37:13.135Z,57.27
2018-11-04T17:39:45.449Z,55.27
2018-11-04T17:42:16.256Z,55.27
2018-11-04T17:47:28.928Z,55.30
2018-11-04T17:50:03.890Z,55.23
2018-11-04T17:52:38.534Z,56.40
2018-11-04T17:55:16.523Z,55.13
2018-11-04T18:00:58.531Z,56.10
2018-11-04T18:03:34.934Z,55.77
2018-11-04T18:06:13.648Z,55.97
2018-11-04T18:08:44.673Z,53.90
2018-11-04T18:11:17.347Z,52.73
2018-11-04T18:13:52.648Z,53.57
2018-11-04T18:16:22.292Z,55.77
2018-11-04T18:18:54.034Z,54.97
2018-11-04T18:21:29.401Z,54.40
2018-11-04T18:24:01.256Z,55.40
2018-11-04T18:26:31.281Z,52.77
2018-11-04T18:29:13.455Z,53.00
2018-11-04T18:31:44.038Z,51.13
2018-11-04T18:34:17.178Z,53.73
2018-11-04T18:36:48.074Z,53.97
2018-11-04T18:39:18.056Z,52.03
2018-11-04T18:41:54.792Z,51.67
2018-11-04T18:44:28.048Z,53.17
2018-11-04T18:46:57.294Z,52.97
2018-11-04T18:49:33.876Z,51.97
2018-11-04T18:52:12.895Z,53.43
2018-11-04T18:55:00.307Z,51.80
2018-11-04T18:57:49.577Z,50.60
2018-11-04T19:00:30.178Z,51.20
2018-11-04T19:03:07.736Z,51.07
2018-11-04T19:05:43.484Z,51.67
2018-11-04T19:08:30.223Z,49.07
2018-11-04T19:14:11.241Z,49.57
2018-11-04T19:16:53.836Z,49.20
2018-11-04T19:19:34.500Z,49.70
2018-11-04T19:22:08.866Z,49.73
2018-11-04T19:24:44.660Z,48.97
2018-11-04T19:27:39.123Z,46.80
2018-11-04T19:30:30.440Z,47.70
2018-11-04T19:38:59.309Z,47.40
2018-11-04T19:49:38.775Z,43.57
2018-11-04T19:53:35.235Z,44.40
2018-11-04T19:56:13.666Z,44.60
2018-11-04T20:41:14.114Z,45.83
2018-11-04T20:43:54.094Z,46.00
2018-11-04T20:46:39.917Z,46.10
2018-11-04T20:49:29.654Z,44.80
2018-11-04T20:52:07.716Z,42.60
2018-11-04T20:54:42.198Z,41.90
2018-11-04T20:57:24.205Z,40.97
2018-11-04T21:00:00.427Z,42.53
2018-11-04T21:02:32.290Z,41.07
2018-11-04T21:05:04.801Z,38.97
2018-11-04T21:07:51.403Z,38.83
2018-11-04T21:10:21.221Z,40.43
2018-11-04T21:13:07.958Z,41.60
2018-11-04T21:16:02.329Z,38.73
2018-11-04T21:18:36.685Z,39.20
2018-11-04T21:21:09.100Z,39.50
2018-11-04T21:23:46.165Z,40.10
2018-11-04T21:26:26.708Z,39.57
2018-11-04T21:29:01.931Z,39.97
2018-11-04T21:31:34.771Z,40.97
2018-11-04T21:34:10.744Z,39.30
2018-11-04T21:36:59.348Z,38.77
2018-11-04T21:39:30.621Z,41.57
2018-11-04T21:42:05.327Z,39.97
2018-11-04T21:44:40.919Z,39.53
2018-11-04T21:47:18.657Z,39.87
2018-11-04T21:49:54.064Z,41.10
2018-11-04T21:52:25.145Z,40.37
2018-11-04T21:54:54.467Z,42.57
2018-11-04T21:57:24.665Z,41.40
2018-11-04T21:59:54.030Z,41.67
2018-11-04T22:02:24.892Z,41.47
2018-11-04T22:04:56.007Z,41.03
2018-11-04T22:07:27.069Z,40.50
2018-11-04T22:10:10.842Z,43.10
2018-11-04T22:12:41.261Z,42.77
2018-11-04T22:15:11.010Z,41.80
2018-11-04T22:17:41.186Z,43.47
2018-11-04T22:20:12.533Z,43.67
2018-11-04T22:22:42.365Z,42.97
2018-11-04T22:25:13.300Z,44.70
2018-11-04T22:27:45.458Z,42.87
2018-11-04T22:30:17.525Z,43.97
2018-11-04T22:32:49.649Z,44.17
2018-11-04T22:35:20.217Z,45.40
2018-11-04T22:37:51.382Z,44.60
2018-11-04T22:40:21.969Z,46.90
2018-11-04T22:42:51.415Z,46.60
2018-11-04T22:48:01.652Z,48.07
2018-11-04T22:50:31.681Z,44.90
2018-11-04T22:53:01.066Z,45.60
2018-11-04T22:55:31.008Z,47.07
2018-11-04T22:58:06.258Z,46.23
2018-11-04T23:00:43.132Z,47.73
2018-11-04T23:03:13.198Z,46.70
2018-11-04T23:05:42.782Z,46.17
2018-11-04T23:08:14.253Z,46.77
2018-11-04T23:10:44.559Z,47.57
2018-11-04T23:13:15.677Z,46.27
2018-11-04T23:15:47.556Z,47.77
2018-11-04T23:18:17.595Z,48.07
2018-11-04T23:20:47.392Z,47.23
2018-11-04T23:23:17.675Z,48.53
2018-11-04T23:25:46.863Z,46.67
2018-11-04T23:28:16.244Z,46.80
2018-11-04T23:30:46.189Z,44.57
2018-11-04T23:33:17.359Z,46.27
2018-11-04T23:35:48.509Z,45.83
2018-11-04T23:38:19.560Z,47.30
2018-11-04T23:40:51.494Z,48.03
2018-11-04T23:43:21.231Z,46.53
2018-11-04T23:45:50.739Z,46.90
2018-11-04T23:48:20.208Z,47.90
2018-11-04T23:50:49.401Z,47.07
2018-11-04T23:53:18.724Z,49.30
2018-11-04T23:55:48.533Z,48.67
2018-11-04T23:58:22.298Z,46.57
